createdAt,value
2017-06-14T00:02:21.703Z,56.90
2017-06-14T00:04:49.249Z,57.60
2017-06-14T00:07:16.786Z,57.70
2017-06-14T00:09:45.076Z,58.30
2017-06-14T00:12:12.637Z,58.30
2017-06-14T00:14:40.154Z,58.80
2017-06-14T00:17:07.685Z,58.60
2017-06-14T00:19:35.239Z,59.00
2017-06-14T00:22:02.763Z,59.10
2017-06-14T00:24:31.075Z,59.00
2017-06-14T00:26:58.590Z,59.00
2017-06-14T00:29:26.899Z,58.60
2017-06-14T00:31:54.420Z,58.50
2017-06-14T00:34:23.330Z,58.70
2017-06-14T00:36:50.853Z,58.70
2017-06-14T00:39:18.423Z,58.60
2017-06-14T00:41:46.726Z,59.20
2017-06-14T00:44:14.245Z,59.00
2017-06-14T00:46:41.785Z,59.50
2017-06-14T00:49:09.309Z,59.90
2017-06-14T00:51:36.857Z,59.60
2017-06-14T00:54:04.380Z,59.60
2017-06-14T00:56:31.935Z,59.60
2017-06-14T00:58:59.456Z,59.00
2017-06-14T01:01:27.002Z,59.00
2017-06-14T01:03:54.519Z,59.10
2017-06-14T01:06:22.069Z,59.30
2017-06-14T01:08:49.580Z,59.70
2017-06-14T01:11:17.102Z,60.30
2017-06-14T01:13:44.634Z,60.20
2017-06-14T01:16:12.158Z,60.40
2017-06-14T01:18:39.705Z,61.10
2017-06-14T01:21:07.223Z,61.00
2017-06-14T01:23:34.770Z,61.20
2017-06-14T01:26:02.286Z,61.90
2017-06-14T01:28:29.817Z,61.80
2017-06-14T01:30:59.049Z,62.70
2017-06-14T01:33:26.585Z,62.70
2017-06-14T01:35:54.873Z,63.30
2017-06-14T01:38:22.404Z,63.30
2017-06-14T01:40:49.946Z,64.20
2017-06-14T01:43:17.477Z,64.20
2017-06-14T01:45:45.029Z,64.00
2017-06-14T01:48:12.549Z,64.60
2017-06-14T01:50:40.866Z,64.40
2017-06-14T01:53:08.386Z,64.30
2017-06-14T01:55:36.696Z,63.90
2017-06-14T01:58:04.220Z,63.90
2017-06-14T02:00:32.499Z,63.70
2017-06-14T02:03:00.807Z,63.70
2017-06-14T02:05:28.328Z,63.70
2017-06-14T02:07:55.882Z,63.80
2017-06-14T02:10:23.397Z,64.60
2017-06-14T02:12:50.948Z,64.20
2017-06-14T02:15:18.464Z,64.60
2017-06-14T02:17:46.765Z,65.30
2017-06-14T02:20:14.289Z,65.20
2017-06-14T02:22:41.806Z,65.80
2017-06-14T02:25:09.354Z,66.00
2017-06-14T02:27:36.873Z,65.20
2017-06-14T02:30:04.422Z,65.00
2017-06-14T02:32:31.937Z,65.30
2017-06-14T02:34:59.471Z,64.60
2017-06-14T02:37:26.996Z,65.20
2017-06-14T02:39:54.537Z,65.20
2017-06-14T02:42:22.057Z,66.10
2017-06-14T02:44:49.602Z,67.00
2017-06-14T02:47:17.136Z,67.20
2017-06-14T02:49:44.667Z,66.80
2017-06-14T02:52:15.503Z,66.80
2017-06-14T02:54:43.054Z,66.80
2017-06-14T02:57:10.602Z,66.60
2017-06-14T02:59:38.122Z,66.40
2017-06-14T03:02:10.219Z,68.00
2017-06-14T03:04:37.771Z,67.90
2017-06-14T03:07:05.314Z,68.10
2017-06-14T03:09:32.829Z,69.00
2017-06-14T03:12:00.372Z,69.00
2017-06-14T03:14:27.899Z,69.00
2017-06-14T03:16:55.442Z,69.10
2017-06-14T03:19:23.766Z,68.10
2017-06-14T03:21:51.276Z,68.00
2017-06-14T03:24:19.583Z,67.70
2017-06-14T03:26:47.103Z,67.60
2017-06-14T03:29:15.409Z,66.40
2017-06-14T03:31:42.943Z,66.20
2017-06-14T03:34:11.258Z,65.30
2017-06-14T03:36:38.825Z,65.10
2017-06-14T03:39:06.339Z,65.10
2017-06-14T03:41:34.651Z,65.10
2017-06-14T03:44:03.020Z,65.10
2017-06-14T03:46:30.568Z,64.80
2017-06-14T03:48:58.090Z,64.80
2017-06-14T03:51:25.661Z,64.90
2017-06-14T03:53:53.945Z,64.60
2017-06-14T03:56:22.233Z,64.70
2017-06-14T03:58:49.774Z,64.60
2017-06-14T04:01:18.052Z,65.00
2017-06-14T04:03:46.361Z,64.60
2017-06-14T04:06:13.888Z,64.60
2017-06-14T04:08:42.199Z,63.50
2017-06-14T04:11:09.710Z,63.50
2017-06-14T04:13:37.281Z,63.10
2017-06-14T04:16:05.566Z,63.50
2017-06-14T04:18:33.850Z,63.20
2017-06-14T04:21:01.391Z,63.20
2017-06-14T04:23:29.677Z,54.80
2017-06-14T04:25:57.982Z,43.30
2017-06-14T04:28:25.518Z,43.10
2017-06-14T04:30:53.805Z,36.20
2017-06-14T04:33:21.902Z,31.90
2017-06-14T04:35:49.457Z,29.40
2017-06-14T04:38:16.985Z,26.60
2017-06-14T04:40:44.521Z,25.30
2017-06-14T04:43:12.846Z,22.60
2017-06-14T04:45:40.372Z,22.60
2017-06-14T04:48:08.684Z,22.10
2017-06-14T04:50:36.205Z,22.10
2017-06-14T04:53:04.521Z,21.70
2017-06-14T04:55:32.049Z,21.70
2017-06-14T04:57:59.570Z,21.40
2017-06-14T05:00:27.113Z,21.30
2017-06-14T05:02:54.630Z,21.40
2017-06-14T05:05:22.169Z,20.10
2017-06-14T05:07:50.462Z,18.90
2017-06-14T05:10:18.006Z,18.90
2017-06-14T05:12:46.304Z,18.10
2017-06-14T05:15:13.868Z,18.10
2017-06-14T05:17:41.393Z,17.30
2017-06-14T05:20:09.698Z,16.50
2017-06-14T05:22:37.240Z,16.40
2017-06-14T05:25:05.541Z,15.70
2017-06-14T05:27:33.095Z,15.70
2017-06-14T05:30:00.620Z,15.90
2017-06-14T05:32:28.933Z,15.50
2017-06-14T05:34:56.455Z,15.30
2017-06-14T05:37:24.013Z,13.90
2017-06-14T05:39:51.542Z,13.60
2017-06-14T05:42:19.075Z,13.30
2017-06-14T05:44:46.632Z,13.40
2017-06-14T05:47:14.153Z,13.50
2017-06-14T05:49:42.470Z,13.60
2017-06-14T05:52:10.057Z,13.00
2017-06-14T05:54:37.616Z,13.20
2017-06-14T05:57:05.154Z,12.30
2017-06-14T05:59:32.669Z,11.60
2017-06-14T06:02:00.975Z,11.30
2017-06-14T06:04:28.489Z,11.30
2017-06-14T06:06:56.029Z,12.10
2017-06-14T06:09:23.550Z,12.60
2017-06-14T06:11:51.083Z,12.70
2017-06-14T06:14:19.362Z,12.30
2017-06-14T06:16:47.681Z,12.70
2017-06-14T06:19:15.205Z,12.60
2017-06-14T06:21:43.492Z,13.00
2017-06-14T06:24:11.970Z,12.90
2017-06-14T06:26:39.497Z,13.80
2017-06-14T06:29:07.038Z,13.60
2017-06-14T06:31:34.555Z,13.60
2017-06-14T06:34:02.093Z,13.80
2017-06-14T06:36:30.380Z,14.40
2017-06-14T06:38:57.930Z,14.30
2017-06-14T06:41:26.214Z,15.50
2017-06-14T06:43:53.750Z,15.30
2017-06-14T06:46:21.295Z,15.90
2017-06-14T06:48:48.814Z,16.10
2017-06-14T06:51:16.355Z,17.00
2017-06-14T06:53:43.891Z,17.50
2017-06-14T06:56:12.194Z,20.70
2017-06-14T06:58:39.749Z,20.60
2017-06-14T07:01:07.298Z,21.30
2017-06-14T07:03:35.578Z,25.20
2017-06-14T07:06:03.127Z,25.20
2017-06-14T07:08:31.417Z,25.90
2017-06-14T07:10:58.946Z,25.90
2017-06-14T07:13:26.487Z,27.50
2017-06-14T07:15:54.009Z,28.00
2017-06-14T07:18:21.554Z,28.10
2017-06-14T07:20:49.133Z,27.60
2017-06-14T07:23:16.676Z,26.90
2017-06-14T07:25:44.208Z,26.60
2017-06-14T07:28:12.529Z,27.00
2017-06-14T07:30:40.050Z,27.00
2017-06-14T07:33:07.577Z,27.60
2017-06-14T07:35:35.113Z,27.70
2017-06-14T07:38:02.634Z,27.50
2017-06-14T07:40:30.174Z,27.20
2017-06-14T07:42:58.469Z,26.90
2017-06-14T07:45:26.005Z,27.00
2017-06-14T07:47:54.296Z,28.40
2017-06-14T07:50:21.857Z,27.70
2017-06-14T07:52:49.373Z,27.90
2017-06-14T07:55:16.895Z,27.30
2017-06-14T07:57:44.442Z,27.40
2017-06-14T08:00:11.966Z,25.20
2017-06-14T08:02:39.585Z,25.20
2017-06-14T08:05:07.103Z,24.30
2017-06-14T08:07:35.416Z,24.70
2017-06-14T08:10:02.980Z,24.70
2017-06-14T08:12:30.538Z,25.10
2017-06-14T08:14:58.070Z,25.60
2017-06-14T08:17:26.351Z,24.20
2017-06-14T08:19:54.090Z,24.20
2017-06-14T08:22:21.619Z,24.70
2017-06-14T08:24:49.163Z,24.30
2017-06-14T08:27:16.687Z,25.20
2017-06-14T08:29:44.258Z,25.00
2017-06-14T08:32:11.796Z,23.00
2017-06-14T08:34:40.107Z,22.70
2017-06-14T08:37:07.653Z,22.60
2017-06-14T08:39:35.170Z,21.20
2017-06-14T08:42:02.709Z,21.80
2017-06-14T08:44:30.237Z,22.60
2017-06-14T08:46:57.777Z,23.60
2017-06-14T08:49:25.290Z,24.00
2017-06-14T08:51:52.827Z,23.50
2017-06-14T08:54:20.366Z,23.40
2017-06-14T08:56:47.885Z,24.00
2017-06-14T08:59:15.453Z,23.10
2017-06-14T09:01:42.975Z,22.60
2017-06-14T09:04:10.504Z,22.90
2017-06-14T09:06:38.042Z,22.80
2017-06-14T09:09:05.631Z,21.50
2017-06-14T09:11:33.182Z,22.30
2017-06-14T09:14:00.701Z,21.80
2017-06-14T09:16:28.998Z,22.70
2017-06-14T09:18:56.543Z,22.60
2017-06-14T09:21:24.068Z,24.00
2017-06-14T09:23:51.621Z,23.70
2017-06-14T09:26:19.167Z,22.70
2017-06-14T09:28:46.715Z,22.60
2017-06-14T09:31:14.234Z,23.60
2017-06-14T09:33:42.556Z,20.30
2017-06-14T09:36:10.075Z,20.30
2017-06-14T09:38:38.363Z,20.20
2017-06-14T09:41:05.908Z,20.20
2017-06-14T09:43:34.264Z,21.30
2017-06-14T09:46:01.837Z,21.30
2017-06-14T09:48:29.364Z,21.20
2017-06-14T09:50:56.906Z,20.30
2017-06-14T09:53:24.425Z,20.60
2017-06-14T09:55:51.954Z,21.20
2017-06-14T09:58:19.497Z,19.60
2017-06-14T10:00:47.014Z,19.00
2017-06-14T10:03:14.554Z,19.70
2017-06-14T10:05:42.842Z,21.10
2017-06-14T10:08:10.389Z,21.10
2017-06-14T10:10:38.685Z,20.50
2017-06-14T10:13:06.249Z,20.50
2017-06-14T10:15:33.779Z,22.10
2017-06-14T10:18:02.069Z,19.40
2017-06-14T10:20:29.627Z,19.20
2017-06-14T10:22:57.915Z,21.50
2017-06-14T10:25:25.458Z,21.50
2017-06-14T10:27:53.742Z,21.20
2017-06-14T10:30:22.049Z,22.10
2017-06-14T10:32:49.579Z,22.10
2017-06-14T10:35:17.143Z,22.00
2017-06-14T10:37:44.675Z,21.40
2017-06-14T10:40:12.964Z,19.50
2017-06-14T10:42:41.275Z,17.80
2017-06-14T10:45:08.797Z,17.70
2017-06-14T10:47:37.484Z,18.20
2017-06-14T10:50:05.762Z,18.50
2017-06-14T10:52:34.078Z,19.50
2017-06-14T10:55:01.598Z,19.50
2017-06-14T10:57:29.911Z,19.50
2017-06-14T10:59:57.438Z,19.50
2017-06-14T11:02:25.718Z,20.00
2017-06-14T11:04:53.266Z,20.00
2017-06-14T11:07:21.561Z,16.90
2017-06-14T11:09:49.108Z,16.80
2017-06-14T11:12:17.393Z,17.90
2017-06-14T11:14:44.934Z,17.90
2017-06-14T11:17:13.242Z,18.20
2017-06-14T11:19:40.810Z,18.10
2017-06-14T11:22:08.326Z,19.60
2017-06-14T11:24:36.622Z,19.10
2017-06-14T11:27:04.170Z,18.50
2017-06-14T11:29:32.453Z,20.00
2017-06-14T11:31:59.993Z,19.90
2017-06-14T11:34:27.519Z,19.80
2017-06-14T11:36:55.062Z,21.00
2017-06-14T11:39:22.598Z,19.70
2017-06-14T11:41:50.154Z,19.30
2017-06-14T11:44:17.681Z,19.50
2017-06-14T11:46:45.198Z,19.70
2017-06-14T11:49:12.742Z,18.10
2017-06-14T11:51:40.261Z,19.20
2017-06-14T11:54:08.574Z,16.50
2017-06-14T11:56:36.093Z,16.50
2017-06-14T11:59:03.649Z,17.00
2017-06-14T12:01:31.173Z,18.00
2017-06-14T12:03:58.713Z,18.40
2017-06-14T12:06:26.249Z,18.20
2017-06-14T12:08:54.573Z,17.20
2017-06-14T12:11:22.101Z,17.30
2017-06-14T12:13:49.623Z,17.10
2017-06-14T12:16:17.179Z,17.60
2017-06-14T12:18:44.710Z,17.20
2017-06-14T12:21:12.249Z,17.30
2017-06-14T12:23:39.767Z,16.50
2017-06-14T12:26:08.075Z,15.80
2017-06-14T12:28:35.595Z,15.70
2017-06-14T12:31:03.935Z,17.80
2017-06-14T12:33:31.453Z,17.70
2017-06-14T12:35:58.978Z,17.20
2017-06-14T12:38:26.516Z,17.50
2017-06-14T12:40:54.418Z,17.60
2017-06-14T12:43:22.727Z,19.00
2017-06-14T12:45:50.251Z,18.90
2017-06-14T12:48:18.590Z,17.40
2017-06-14T12:50:46.115Z,17.30
2017-06-14T12:53:13.650Z,17.00
2017-06-14T12:55:41.973Z,18.60
2017-06-14T12:58:09.492Z,18.50
2017-06-14T13:00:37.804Z,16.40
2017-06-14T13:03:05.327Z,16.40
2017-06-14T13:05:33.634Z,15.10
2017-06-14T13:08:01.157Z,15.70
2017-06-14T13:10:29.474Z,18.20
2017-06-14T13:12:56.998Z,18.20
2017-06-14T13:15:26.086Z,17.90
2017-06-14T13:17:54.403Z,17.70
2017-06-14T13:20:21.932Z,17.70
2017-06-14T13:22:50.243Z,17.10
2017-06-14T13:25:17.785Z,17.10
2017-06-14T13:27:45.326Z,17.20
2017-06-14T13:30:13.617Z,17.20
2017-06-14T13:32:41.171Z,17.20
2017-06-14T13:35:08.698Z,16.70
2017-06-14T13:37:36.224Z,16.60
2017-06-14T13:40:03.766Z,16.60
2017-06-14T13:42:31.281Z,16.60
2017-06-14T13:44:58.838Z,17.00
2017-06-14T13:47:26.360Z,17.80
2017-06-14T13:49:53.921Z,18.80
2017-06-14T13:52:21.441Z,18.30
2017-06-14T13:54:49.905Z,18.40
2017-06-14T13:57:18.198Z,18.70
2017-06-14T13:59:45.714Z,18.60
2017-06-14T14:02:13.259Z,19.60
2017-06-14T14:04:40.777Z,18.80
2017-06-14T14:07:08.321Z,18.60
2017-06-14T14:09:36.614Z,18.70
2017-06-14T14:12:04.150Z,18.70
2017-06-14T14:14:31.670Z,17.90
2017-06-14T14:16:59.239Z,16.30
2017-06-14T14:19:26.770Z,16.10
2017-06-14T14:21:54.301Z,15.60
2017-06-14T14:24:21.865Z,16.30
2017-06-14T14:26:49.384Z,15.70
2017-06-14T14:29:16.936Z,15.60
2017-06-14T14:31:44.561Z,15.30
2017-06-14T14:34:12.103Z,16.80
2017-06-14T14:36:39.636Z,16.50
2017-06-14T14:39:07.962Z,18.70
2017-06-14T14:41:35.484Z,18.70
2017-06-14T14:44:03.762Z,17.40
2017-06-14T14:46:32.935Z,18.00
2017-06-14T14:49:00.467Z,17.90
2017-06-14T14:51:28.013Z,17.50
2017-06-14T14:53:55.536Z,17.50
2017-06-14T14:56:23.091Z,17.90
2017-06-14T14:58:50.631Z,16.50
2017-06-14T15:01:18.946Z,15.40
2017-06-14T15:03:46.462Z,15.40
2017-06-14T15:06:14.002Z,15.50
2017-06-14T15:08:41.523Z,16.00
2017-06-14T15:11:09.087Z,15.40
2017-06-14T15:13:36.618Z,15.70
2017-06-14T15:16:04.919Z,16.00
2017-06-14T15:18:32.464Z,16.00
2017-06-14T15:20:59.990Z,17.10
2017-06-14T15:23:27.539Z,18.00
2017-06-14T15:25:55.055Z,18.80
2017-06-14T15:28:22.608Z,19.60
2017-06-14T15:30:51.054Z,19.10
2017-06-14T15:33:19.375Z,19.30
2017-06-14T15:35:46.893Z,19.00
2017-06-14T15:38:15.188Z,20.40
2017-06-14T15:40:42.731Z,20.40
2017-06-14T15:43:11.023Z,19.90
2017-06-14T15:45:38.565Z,19.90
2017-06-14T15:48:06.847Z,19.40
2017-06-14T15:50:35.163Z,18.70
2017-06-14T15:53:02.687Z,18.70
2017-06-14T15:55:30.983Z,19.90
2017-06-14T15:57:58.550Z,19.80
2017-06-14T16:00:26.073Z,18.50
2017-06-14T16:02:53.622Z,18.40
2017-06-14T16:05:21.138Z,19.20
2017-06-14T16:07:48.675Z,19.50
2017-06-14T16:10:16.205Z,18.20
2017-06-14T16:12:44.527Z,18.90
2017-06-14T16:15:12.050Z,18.90
2017-06-14T16:17:40.325Z,18.60
2017-06-14T16:20:08.627Z,18.20
2017-06-14T16:22:36.145Z,18.20
2017-06-14T16:25:04.472Z,18.80
2017-06-14T16:27:31.998Z,18.60
2017-06-14T16:30:00.309Z,18.30
2017-06-14T16:32:27.826Z,18.30
2017-06-14T16:34:55.378Z,18.70
2017-06-14T16:37:23.666Z,19.60
2017-06-14T16:39:51.951Z,19.90
2017-06-14T16:42:19.497Z,19.90
2017-06-14T16:44:47.850Z,18.90
2017-06-14T16:47:15.386Z,18.80
2017-06-14T16:49:42.910Z,19.10
2017-06-14T16:52:10.450Z,18.90
2017-06-14T16:54:37.969Z,18.80
2017-06-14T16:57:05.510Z,19.30
2017-06-14T16:59:33.025Z,19.80
2017-06-14T17:02:01.321Z,20.40
2017-06-14T17:04:28.862Z,20.40
2017-06-14T17:06:57.155Z,21.40
2017-06-14T17:09:24.698Z,21.40
2017-06-14T17:11:52.983Z,22.00
2017-06-14T17:14:20.528Z,21.90
2017-06-14T17:16:49.654Z,21.30
2017-06-14T17:19:17.196Z,21.30
2017-06-14T17:21:44.719Z,21.50
2017-06-14T17:24:12.266Z,21.40
2017-06-14T17:26:39.783Z,22.40
2017-06-14T17:29:07.318Z,21.60
2017-06-14T17:31:35.632Z,22.80
2017-06-14T17:34:03.154Z,22.80
2017-06-14T17:36:31.461Z,23.70
2017-06-14T17:38:58.991Z,23.70
2017-06-14T17:41:27.312Z,24.30
2017-06-14T17:43:54.837Z,24.30
2017-06-14T17:46:22.364Z,24.70
2017-06-14T17:48:49.906Z,25.00
2017-06-14T17:51:17.438Z,25.00
2017-06-14T17:53:44.978Z,25.00
2017-06-14T17:56:12.564Z,25.50
2017-06-14T17:58:40.480Z,25.60
2017-06-14T18:01:09.183Z,27.00
2017-06-14T18:03:37.511Z,27.40
2017-06-14T18:06:05.047Z,27.40
2017-06-14T18:08:32.575Z,27.70
2017-06-14T18:11:00.882Z,28.50
2017-06-14T18:13:28.418Z,28.40
2017-06-14T18:15:55.962Z,28.90
2017-06-14T18:18:23.491Z,29.20
2017-06-14T18:20:51.030Z,29.00
2017-06-14T18:23:18.566Z,29.50
2017-06-14T18:25:46.147Z,29.90
2017-06-14T18:28:13.676Z,30.30
2017-06-14T18:30:41.199Z,30.20
2017-06-14T18:33:08.738Z,30.80
2017-06-14T18:35:36.262Z,31.50
2017-06-14T18:38:03.809Z,32.40
2017-06-14T18:40:31.345Z,33.10
2017-06-14T18:42:59.653Z,34.10
2017-06-14T18:45:27.175Z,33.90
2017-06-14T18:47:55.500Z,35.20
2017-06-14T18:50:23.035Z,34.80
2017-06-14T18:52:50.558Z,35.30
2017-06-14T18:55:18.117Z,35.50
2017-06-14T18:57:45.738Z,35.60
2017-06-14T19:00:13.283Z,36.20
2017-06-14T19:02:40.854Z,36.90
2017-06-14T19:05:08.429Z,37.40
2017-06-14T19:07:35.970Z,37.30
2017-06-14T19:10:03.585Z,38.20
2017-06-14T19:12:31.139Z,37.90
2017-06-14T19:14:58.670Z,38.60
2017-06-14T19:17:26.231Z,38.90
2017-06-14T19:19:53.812Z,39.70
2017-06-14T19:22:21.368Z,40.20
2017-06-14T19:24:48.898Z,40.00
2017-06-14T19:27:17.419Z,41.10
2017-06-14T19:29:45.710Z,40.70
2017-06-14T19:32:13.274Z,41.60
2017-06-14T19:34:46.431Z,41.30
2017-06-14T19:37:13.980Z,41.90
2017-06-14T19:39:41.518Z,42.10
2017-06-14T19:42:09.073Z,42.50
2017-06-14T19:44:36.619Z,44.60
2017-06-14T19:47:04.145Z,45.20
2017-06-14T19:49:32.457Z,44.40
2017-06-14T19:52:00.022Z,44.40
2017-06-14T19:54:27.579Z,44.90
2017-06-14T19:56:55.110Z,45.90
2017-06-14T19:59:23.433Z,46.00
2017-06-14T20:01:50.949Z,46.00
2017-06-14T20:04:19.239Z,46.60
2017-06-14T20:06:46.791Z,46.50
2017-06-14T20:09:14.323Z,46.90
2017-06-14T20:11:41.890Z,47.00
2017-06-14T20:14:10.179Z,48.00
2017-06-14T20:16:37.742Z,48.00
2017-06-14T20:19:05.278Z,48.30
2017-06-14T20:21:32.805Z,49.00
2017-06-14T20:24:00.355Z,49.20
2017-06-14T20:26:27.884Z,49.10
2017-06-14T20:28:55.421Z,49.30
2017-06-14T20:31:23.714Z,50.70
2017-06-14T20:33:51.274Z,50.60
2017-06-14T20:36:18.803Z,51.00
2017-06-14T20:38:46.333Z,51.90
2017-06-14T20:41:13.875Z,52.00
2017-06-14T20:43:41.401Z,51.70
2017-06-14T20:46:08.942Z,52.90
2017-06-14T20:48:36.461Z,52.60
2017-06-14T20:51:04.007Z,53.00
2017-06-14T20:53:31.538Z,53.30
2017-06-14T20:55:59.093Z,53.90
2017-06-14T20:58:26.617Z,54.80
2017-06-14T21:00:54.143Z,55.00
2017-06-14T21:03:21.687Z,55.20
2017-06-14T21:05:49.220Z,55.70
2017-06-14T21:08:16.770Z,55.80
2017-06-14T21:10:45.071Z,57.30
2017-06-14T21:13:12.646Z,57.20
2017-06-14T21:15:40.192Z,57.40
2017-06-14T21:18:07.725Z,57.60
2017-06-14T21:20:36.052Z,58.50
2017-06-14T21:23:03.602Z,59.20
2017-06-14T21:25:31.154Z,58.00
2017-06-14T21:27:58.677Z,58.50
2017-06-14T21:30:27.008Z,61.10
2017-06-14T21:32:54.540Z,60.90
2017-06-14T21:35:22.065Z,61.60
2017-06-14T21:37:50.384Z,62.30
2017-06-14T21:40:17.906Z,62.30
2017-06-14T21:42:46.224Z,63.30
2017-06-14T21:45:13.756Z,63.20
2017-06-14T21:47:41.315Z,63.20
2017-06-14T21:50:08.851Z,63.80
2017-06-14T21:52:37.211Z,64.80
2017-06-14T21:55:04.762Z,64.70
2017-06-14T21:57:32.314Z,64.40
2017-06-14T21:59:59.881Z,64.80
2017-06-14T22:02:27.412Z,65.80
2017-06-14T22:04:54.962Z,65.50
2017-06-14T22:07:22.498Z,65.80
2017-06-14T22:09:50.819Z,65.60
2017-06-14T22:12:22.045Z,65.40
2017-06-14T22:14:49.602Z,65.90
2017-06-14T22:17:17.144Z,67.10
2017-06-14T22:19:45.433Z,66.10
2017-06-14T22:22:12.985Z,66.10
2017-06-14T22:24:40.523Z,66.00
2017-06-14T22:27:08.168Z,65.20
2017-06-14T22:29:35.780Z,65.20
2017-06-14T22:32:03.341Z,64.50
2017-06-14T22:34:30.896Z,65.20
2017-06-14T22:36:58.427Z,64.50
2017-06-14T22:39:26.742Z,63.60
2017-06-14T22:41:54.323Z,63.50
2017-06-14T22:44:21.942Z,63.70
2017-06-14T22:46:49.480Z,64.00
2017-06-14T22:49:17.042Z,64.50
2017-06-14T22:51:44.592Z,65.50
2017-06-14T22:54:12.120Z,66.80
2017-06-14T22:56:39.681Z,66.90
2017-06-14T22:59:07.209Z,67.30
2017-06-14T23:01:34.748Z,67.20
2017-06-14T23:04:03.075Z,67.50
2017-06-14T23:06:30.629Z,67.50
2017-06-14T23:08:58.159Z,63.20
2017-06-14T23:11:25.690Z,61.40
2017-06-14T23:13:54.014Z,58.20
2017-06-14T23:16:21.538Z,58.20
2017-06-14T23:18:49.698Z,57.50
2017-06-14T23:21:17.995Z,57.50
2017-06-14T23:23:45.578Z,57.40
2017-06-14T23:26:13.099Z,57.30
2017-06-14T23:28:41.419Z,56.50
2017-06-14T23:31:08.937Z,56.40
2017-06-14T23:33:37.236Z,57.20
2017-06-14T23:36:04.771Z,57.10
2017-06-14T23:38:33.067Z,57.90
2017-06-14T23:41:00.610Z,57.80
2017-06-14T23:43:28.893Z,58.40
2017-06-14T23:45:56.460Z,58.40
2017-06-14T23:48:23.982Z,59.50
2017-06-14T23:50:51.706Z,61.40
2017-06-14T23:53:19.249Z,64.90
2017-06-14T23:55:46.881Z,66.90
2017-06-14T23:58:15.188Z,68.20
